sensor_id;sensor_type;location;lat;lon;timestamp;temperature;humidity
45137;DHT22;30894;51.740;19.498;2022-08-19T00:01:51;19.80;78.90
45137;DHT22;30894;51.740;19.498;2022-08-19T00:04:23;19.70;79.00
45137;DHT22;30894;51.740;19.498;2022-08-19T00:06:51;19.70;79.20
45137;DHT22;30894;51.740;19.498;2022-08-19T00:09:20;19.70;79.20
45137;DHT22;30894;51.740;19.498;2022-08-19T00:11:47;19.60;79.20
45137;DHT22;30894;51.740;19.498;2022-08-19T00:14:16;19.70;79.40
45137;DHT22;30894;51.740;19.498;2022-08-19T00:16:45;19.60;79.40
45137;DHT22;30894;51.740;19.498;2022-08-19T00:19:14;19.60;79.50
45137;DHT22;30894;51.740;19.498;2022-08-19T00:21:40;19.60;79.60
45137;DHT22;30894;51.740;19.498;2022-08-19T00:24:08;19.70;79.70
45137;DHT22;30894;51.740;19.498;2022-08-19T00:26:37;19.60;79.70
45137;DHT22;30894;51.740;19.498;2022-08-19T00:29:04;19.60;79.80
45137;DHT22;30894;51.740;19.498;2022-08-19T00:31:31;19.60;79.90
45137;DHT22;30894;51.740;19.498;2022-08-19T00:33:58;19.60;79.90
45137;DHT22;30894;51.740;19.498;2022-08-19T00:36:25;19.60;79.90
45137;DHT22;30894;51.740;19.498;2022-08-19T00:38:51;19.60;79.80
45137;DHT22;30894;51.740;19.498;2022-08-19T00:41:19;19.70;79.90
45137;DHT22;30894;51.740;19.498;2022-08-19T00:46:33;19.60;80.00
45137;DHT22;30894;51.740;19.498;2022-08-19T00:49:05;19.60;80.10
45137;DHT22;30894;51.740;19.498;2022-08-19T00:51:34;19.50;80.20
45137;DHT22;30894;51.740;19.498;2022-08-19T00:54:02;19.50;80.30
45137;DHT22;30894;51.740;19.498;2022-08-19T00:56:29;19.40;80.50
45137;DHT22;30894;51.740;19.498;2022-08-19T00:58:57;19.40;80.70
45137;DHT22;30894;51.740;19.498;2022-08-19T01:01:24;19.40;81.70
45137;DHT22;30894;51.740;19.498;2022-08-19T01:03:50;19.30;81.30
45137;DHT22;30894;51.740;19.498;2022-08-19T01:06:16;19.30;81.40
45137;DHT22;30894;51.740;19.498;2022-08-19T01:08:42;19.20;81.60
45137;DHT22;30894;51.740;19.498;2022-08-19T01:11:08;19.20;81.80
45137;DHT22;30894;51.740;19.498;2022-08-19T01:13:35;19.10;81.80
45137;DHT22;30894;51.740;19.498;2022-08-19T01:16:06;19.10;82.10
45137;DHT22;30894;51.740;19.498;2022-08-19T01:18:38;19.10;82.20
45137;DHT22;30894;51.740;19.498;2022-08-19T01:21:22;19.10;82.30
45137;DHT22;30894;51.740;19.498;2022-08-19T01:23:51;19.10;82.40
45137;DHT22;30894;51.740;19.498;2022-08-19T01:26:21;19.10;82.30
45137;DHT22;30894;51.740;19.498;2022-08-19T01:28:52;19.10;82.40
45137;DHT22;30894;51.740;19.498;2022-08-19T01:31:25;19.10;82.40
45137;DHT22;30894;51.740;19.498;2022-08-19T01:33:56;19.10;82.50
45137;DHT22;30894;51.740;19.498;2022-08-19T01:36:35;19.10;82.60
45137;DHT22;30894;51.740;19.498;2022-08-19T01:39:14;19.10;82.80
45137;DHT22;30894;51.740;19.498;2022-08-19T01:41:46;19.10;82.80
45137;DHT22;30894;51.740;19.498;2022-08-19T01:44:12;19.10;82.80
45137;DHT22;30894;51.740;19.498;2022-08-19T01:46:39;19.10;82.90
45137;DHT22;30894;51.740;19.498;2022-08-19T01:49:07;19.20;83.10
45137;DHT22;30894;51.740;19.498;2022-08-19T01:51:34;19.10;83.00
45137;DHT22;30894;51.740;19.498;2022-08-19T01:54:00;19.10;83.20
45137;DHT22;30894;51.740;19.498;2022-08-19T01:56:27;19.10;83.20
45137;DHT22;30894;51.740;19.498;2022-08-19T01:58:59;19.20;83.30
45137;DHT22;30894;51.740;19.498;2022-08-19T02:01:26;19.20;83.40
45137;DHT22;30894;51.740;19.498;2022-08-19T02:03:52;19.20;83.40
45137;DHT22;30894;51.740;19.498;2022-08-19T02:06:20;19.20;83.50
45137;DHT22;30894;51.740;19.498;2022-08-19T02:08:46;19.20;83.60
45137;DHT22;30894;51.740;19.498;2022-08-19T02:11:28;19.20;83.70
45137;DHT22;30894;51.740;19.498;2022-08-19T02:13:57;19.20;84.00
45137;DHT22;30894;51.740;19.498;2022-08-19T02:16:24;19.20;83.90
45137;DHT22;30894;51.740;19.498;2022-08-19T02:18:50;19.20;84.00
45137;DHT22;30894;51.740;19.498;2022-08-19T02:21:18;19.20;84.20
45137;DHT22;30894;51.740;19.498;2022-08-19T02:23:45;19.20;84.20
45137;DHT22;30894;51.740;19.498;2022-08-19T02:26:11;19.30;84.20
45137;DHT22;30894;51.740;19.498;2022-08-19T02:28:39;19.30;84.20
45137;DHT22;30894;51.740;19.498;2022-08-19T02:31:12;19.30;84.30
45137;DHT22;30894;51.740;19.498;2022-08-19T02:33:45;19.30;84.40
45137;DHT22;30894;51.740;19.498;2022-08-19T02:36:14;19.40;84.40
45137;DHT22;30894;51.740;19.498;2022-08-19T02:38:41;19.40;84.30
45137;DHT22;30894;51.740;19.498;2022-08-19T02:41:16;19.50;84.30
45137;DHT22;30894;51.740;19.498;2022-08-19T02:43:44;19.60;84.40
45137;DHT22;30894;51.740;19.498;2022-08-19T02:46:17;19.60;84.10
45137;DHT22;30894;51.740;19.498;2022-08-19T02:48:49;19.70;84.20
45137;DHT22;30894;51.740;19.498;2022-08-19T02:51:25;19.80;84.20
45137;DHT22;30894;51.740;19.498;2022-08-19T02:53:54;19.90;84.10
45137;DHT22;30894;51.740;19.498;2022-08-19T02:56:20;19.90;84.00
45137;DHT22;30894;51.740;19.498;2022-08-19T02:58:47;19.90;84.00
45137;DHT22;30894;51.740;19.498;2022-08-19T03:01:26;19.90;84.10
45137;DHT22;30894;51.740;19.498;2022-08-19T03:03:54;19.90;84.30
45137;DHT22;30894;51.740;19.498;2022-08-19T03:06:22;19.90;84.40
45137;DHT22;30894;51.740;19.498;2022-08-19T03:08:48;20.00;84.40
45137;DHT22;30894;51.740;19.498;2022-08-19T03:11:21;20.00;84.60
45137;DHT22;30894;51.740;19.498;2022-08-19T03:13:48;20.10;84.60
45137;DHT22;30894;51.740;19.498;2022-08-19T03:16:21;20.10;84.40
45137;DHT22;30894;51.740;19.498;2022-08-19T03:18:50;20.10;84.60
45137;DHT22;30894;51.740;19.498;2022-08-19T03:21:18;20.10;84.60
45137;DHT22;30894;51.740;19.498;2022-08-19T03:23:48;20.10;84.70
45137;DHT22;30894;51.740;19.498;2022-08-19T03:26:14;20.10;84.80
45137;DHT22;30894;51.740;19.498;2022-08-19T03:28:44;20.20;85.10
45137;DHT22;30894;51.740;19.498;2022-08-19T03:31:17;20.10;85.20
45137;DHT22;30894;51.740;19.498;2022-08-19T03:33:45;20.10;85.30
45137;DHT22;30894;51.740;19.498;2022-08-19T03:36:14;20.10;85.40
45137;DHT22;30894;51.740;19.498;2022-08-19T03:38:47;20.10;85.60
45137;DHT22;30894;51.740;19.498;2022-08-19T03:41:24;20.20;85.70
45137;DHT22;30894;51.740;19.498;2022-08-19T03:43:55;20.20;85.80
45137;DHT22;30894;51.740;19.498;2022-08-19T03:46:29;20.20;86.00
45137;DHT22;30894;51.740;19.498;2022-08-19T03:48:59;20.20;86.20
45137;DHT22;30894;51.740;19.498;2022-08-19T03:51:33;20.20;86.30
45137;DHT22;30894;51.740;19.498;2022-08-19T03:54:03;20.20;86.50
45137;DHT22;30894;51.740;19.498;2022-08-19T03:56:36;20.20;86.40
45137;DHT22;30894;51.740;19.498;2022-08-19T03:59:05;20.30;86.60
45137;DHT22;30894;51.740;19.498;2022-08-19T04:01:32;20.30;86.60
45137;DHT22;30894;51.740;19.498;2022-08-19T04:03:59;20.30;86.50
45137;DHT22;30894;51.740;19.498;2022-08-19T04:06:32;20.40;86.60
45137;DHT22;30894;51.740;19.498;2022-08-19T04:09:03;20.40;86.70
45137;DHT22;30894;51.740;19.498;2022-08-19T04:11:35;20.50;86.80
45137;DHT22;30894;51.740;19.498;2022-08-19T04:14:06;20.50;86.80
45137;DHT22;30894;51.740;19.498;2022-08-19T04:16:34;20.60;86.80
45137;DHT22;30894;51.740;19.498;2022-08-19T04:19:02;20.60;86.70
45137;DHT22;30894;51.740;19.498;2022-08-19T04:21:29;20.60;86.80
45137;DHT22;30894;51.740;19.498;2022-08-19T04:23:56;20.60;86.80
45137;DHT22;30894;51.740;19.498;2022-08-19T04:26:28;20.70;86.90
45137;DHT22;30894;51.740;19.498;2022-08-19T04:29:01;20.70;86.90
45137;DHT22;30894;51.740;19.498;2022-08-19T04:31:32;20.80;86.90
45137;DHT22;30894;51.740;19.498;2022-08-19T04:34:05;20.80;86.90
45137;DHT22;30894;51.740;19.498;2022-08-19T04:36:34;20.90;87.00
45137;DHT22;30894;51.740;19.498;2022-08-19T04:39:09;20.90;86.90
45137;DHT22;30894;51.740;19.498;2022-08-19T04:41:40;21.00;86.90
45137;DHT22;30894;51.740;19.498;2022-08-19T04:44:25;21.10;86.80
45137;DHT22;30894;51.740;19.498;2022-08-19T04:46:52;21.30;86.50
45137;DHT22;30894;51.740;19.498;2022-08-19T04:49:21;21.30;86.30
45137;DHT22;30894;51.740;19.498;2022-08-19T04:51:49;21.40;86.20
45137;DHT22;30894;51.740;19.498;2022-08-19T04:54:18;21.50;86.00
45137;DHT22;30894;51.740;19.498;2022-08-19T04:56:54;21.60;85.90
45137;DHT22;30894;51.740;19.498;2022-08-19T04:59:20;21.60;85.80
45137;DHT22;30894;51.740;19.498;2022-08-19T05:01:47;21.70;85.80
45137;DHT22;30894;51.740;19.498;2022-08-19T05:04:16;21.80;85.60
45137;DHT22;30894;51.740;19.498;2022-08-19T05:06:45;22.00;85.30
45137;DHT22;30894;51.740;19.498;2022-08-19T05:09:14;22.20;84.80
45137;DHT22;30894;51.740;19.498;2022-08-19T05:11:40;22.30;84.20
45137;DHT22;30894;51.740;19.498;2022-08-19T05:14:09;22.60;83.60
45137;DHT22;30894;51.740;19.498;2022-08-19T05:16:35;22.90;83.00
45137;DHT22;30894;51.740;19.498;2022-08-19T05:19:01;23.20;82.20
45137;DHT22;30894;51.740;19.498;2022-08-19T05:21:46;23.40;81.50
45137;DHT22;30894;51.740;19.498;2022-08-19T05:24:31;23.70;80.80
45137;DHT22;30894;51.740;19.498;2022-08-19T05:27:00;24.10;80.10
45137;DHT22;30894;51.740;19.498;2022-08-19T05:29:29;24.30;79.60
45137;DHT22;30894;51.740;19.498;2022-08-19T05:32:05;24.60;79.10
45137;DHT22;30894;51.740;19.498;2022-08-19T05:34:37;24.80;78.40
45137;DHT22;30894;51.740;19.498;2022-08-19T05:37:05;25.10;77.90
45137;DHT22;30894;51.740;19.498;2022-08-19T05:39:34;25.40;77.50
45137;DHT22;30894;51.740;19.498;2022-08-19T05:42:06;25.60;77.00
45137;DHT22;30894;51.740;19.498;2022-08-19T05:44:38;25.90;76.50
45137;DHT22;30894;51.740;19.498;2022-08-19T05:47:09;26.20;75.90
45137;DHT22;30894;51.740;19.498;2022-08-19T05:49:37;26.40;75.60
45137;DHT22;30894;51.740;19.498;2022-08-19T05:52:05;26.70;75.30
45137;DHT22;30894;51.740;19.498;2022-08-19T05:54:33;26.80;74.90
45137;DHT22;30894;51.740;19.498;2022-08-19T05:57:00;27.10;74.70
45137;DHT22;30894;51.740;19.498;2022-08-19T05:59:28;27.40;74.30
45137;DHT22;30894;51.740;19.498;2022-08-19T06:01:54;27.50;73.90
45137;DHT22;30894;51.740;19.498;2022-08-19T06:04:23;27.60;73.70
45137;DHT22;30894;51.740;19.498;2022-08-19T06:06:52;27.90;73.50
45137;DHT22;30894;51.740;19.498;2022-08-19T06:09:20;28.10;73.10
45137;DHT22;30894;51.740;19.498;2022-08-19T06:11:53;28.20;72.90
45137;DHT22;30894;51.740;19.498;2022-08-19T06:14:24;28.40;72.80
45137;DHT22;30894;51.740;19.498;2022-08-19T06:16:51;28.70;72.30
45137;DHT22;30894;51.740;19.498;2022-08-19T06:19:20;28.80;72.00
45137;DHT22;30894;51.740;19.498;2022-08-19T06:21:48;29.10;72.00
45137;DHT22;30894;51.740;19.498;2022-08-19T06:24:18;29.20;71.60
45137;DHT22;30894;51.740;19.498;2022-08-19T06:26:50;29.50;71.40
45137;DHT22;30894;51.740;19.498;2022-08-19T06:29:21;29.80;70.90
45137;DHT22;30894;51.740;19.498;2022-08-19T06:31:53;29.90;70.50
45137;DHT22;30894;51.740;19.498;2022-08-19T06:34:20;30.20;70.30
45137;DHT22;30894;51.740;19.498;2022-08-19T06:36:50;30.40;70.70
45137;DHT22;30894;51.740;19.498;2022-08-19T06:39:20;30.60;69.70
45137;DHT22;30894;51.740;19.498;2022-08-19T06:41:51;30.70;69.40
45137;DHT22;30894;51.740;19.498;2022-08-19T06:44:20;30.80;69.40
45137;DHT22;30894;51.740;19.498;2022-08-19T06:46:48;30.80;69.30
45137;DHT22;30894;51.740;19.498;2022-08-19T06:49:16;31.10;69.90
45137;DHT22;30894;51.740;19.498;2022-08-19T06:51:44;31.20;68.90
45137;DHT22;30894;51.740;19.498;2022-08-19T06:54:16;31.30;68.90
45137;DHT22;30894;51.740;19.498;2022-08-19T06:56:43;31.30;68.70
45137;DHT22;30894;51.740;19.498;2022-08-19T06:59:13;31.20;68.90
45137;DHT22;30894;51.740;19.498;2022-08-19T07:01:55;31.20;69.10
45137;DHT22;30894;51.740;19.498;2022-08-19T07:04:24;31.40;69.00
45137;DHT22;30894;51.740;19.498;2022-08-19T07:07:05;31.90;68.50
45137;DHT22;30894;51.740;19.498;2022-08-19T07:09:37;32.30;67.80
45137;DHT22;30894;51.740;19.498;2022-08-19T07:12:07;32.70;67.00
45137;DHT22;30894;51.740;19.498;2022-08-19T07:14:35;33.00;66.60
45137;DHT22;30894;51.740;19.498;2022-08-19T07:17:05;33.10;66.30
45137;DHT22;30894;51.740;19.498;2022-08-19T07:19:34;33.00;66.40
45137;DHT22;30894;51.740;19.498;2022-08-19T07:22:02;32.90;66.60
45137;DHT22;30894;51.740;19.498;2022-08-19T07:24:33;33.10;66.50
45137;DHT22;30894;51.740;19.498;2022-08-19T07:27:02;33.10;66.20
45137;DHT22;30894;51.740;19.498;2022-08-19T07:29:32;33.30;66.10
45137;DHT22;30894;51.740;19.498;2022-08-19T07:32:01;33.20;66.00
45137;DHT22;30894;51.740;19.498;2022-08-19T07:34:29;33.20;65.90
45137;DHT22;30894;51.740;19.498;2022-08-19T07:36:56;33.30;66.00
45137;DHT22;30894;51.740;19.498;2022-08-19T07:39:26;33.50;65.70
45137;DHT22;30894;51.740;19.498;2022-08-19T07:41:59;33.90;65.20
45137;DHT22;30894;51.740;19.498;2022-08-19T07:44:26;34.40;64.60
45137;DHT22;30894;51.740;19.498;2022-08-19T07:46:54;34.90;63.90
45137;DHT22;30894;51.740;19.498;2022-08-19T07:49:22;35.10;63.30
45137;DHT22;30894;51.740;19.498;2022-08-19T07:51:52;35.40;63.20
45137;DHT22;30894;51.740;19.498;2022-08-19T07:54:23;35.70;62.70
45137;DHT22;30894;51.740;19.498;2022-08-19T07:56:50;36.00;62.20
45137;DHT22;30894;51.740;19.498;2022-08-19T07:59:17;36.10;61.80
45137;DHT22;30894;51.740;19.498;2022-08-19T08:01:45;36.30;61.80
45137;DHT22;30894;51.740;19.498;2022-08-19T08:04:11;36.10;61.80
45137;DHT22;30894;51.740;19.498;2022-08-19T08:06:56;35.70;62.20
45137;DHT22;30894;51.740;19.498;2022-08-19T08:09:42;35.70;62.50
45137;DHT22;30894;51.740;19.498;2022-08-19T08:12:12;35.80;62.30
45137;DHT22;30894;51.740;19.498;2022-08-19T08:14:46;35.50;62.50
45137;DHT22;30894;51.740;19.498;2022-08-19T08:17:16;35.50;62.80
45137;DHT22;30894;51.740;19.498;2022-08-19T08:19:46;35.70;62.70
45137;DHT22;30894;51.740;19.498;2022-08-19T08:22:19;35.90;62.30
45137;DHT22;30894;51.740;19.498;2022-08-19T08:25:10;36.30;61.90
45137;DHT22;30894;51.740;19.498;2022-08-19T08:27:41;36.50;61.50
45137;DHT22;30894;51.740;19.498;2022-08-19T08:30:09;36.70;61.20
45137;DHT22;30894;51.740;19.498;2022-08-19T08:32:40;36.80;61.00
45137;DHT22;30894;51.740;19.498;2022-08-19T08:35:09;37.00;60.70
45137;DHT22;30894;51.740;19.498;2022-08-19T08:37:37;37.30;60.40
45137;DHT22;30894;51.740;19.498;2022-08-19T08:40:10;37.80;60.00
45137;DHT22;30894;51.740;19.498;2022-08-19T08:42:52;38.00;59.40
45137;DHT22;30894;51.740;19.498;2022-08-19T08:45:27;38.40;59.10
45137;DHT22;30894;51.740;19.498;2022-08-19T08:47:56;38.90;58.50
45137;DHT22;30894;51.740;19.498;2022-08-19T08:50:39;39.20;58.00
45137;DHT22;30894;51.740;19.498;2022-08-19T08:53:16;39.50;57.60
45137;DHT22;30894;51.740;19.498;2022-08-19T08:55:44;40.10;57.20
45137;DHT22;30894;51.740;19.498;2022-08-19T08:58:35;40.40;56.70
45137;DHT22;30894;51.740;19.498;2022-08-19T09:01:09;40.50;56.70
45137;DHT22;30894;51.740;19.498;2022-08-19T09:03:39;40.60;56.50
45137;DHT22;30894;51.740;19.498;2022-08-19T09:09:32;41.00;56.10
45137;DHT22;30894;51.740;19.498;2022-08-19T09:15:12;41.60;55.30
45137;DHT22;30894;51.740;19.498;2022-08-19T09:17:39;42.00;55.00
45137;DHT22;30894;51.740;19.498;2022-08-19T09:20:23;42.30;54.70
45137;DHT22;30894;51.740;19.498;2022-08-19T09:22:49;42.40;54.60
45137;DHT22;30894;51.740;19.498;2022-08-19T09:25:19;42.30;54.30
45137;DHT22;30894;51.740;19.498;2022-08-19T09:27:51;42.40;54.40
45137;DHT22;30894;51.740;19.498;2022-08-19T09:30:23;42.50;54.30
45137;DHT22;30894;51.740;19.498;2022-08-19T09:32:51;42.60;54.20
45137;DHT22;30894;51.740;19.498;2022-08-19T09:35:19;42.50;54.10
45137;DHT22;30894;51.740;19.498;2022-08-19T09:37:48;42.70;54.10
45137;DHT22;30894;51.740;19.498;2022-08-19T09:40:15;42.90;53.90
45137;DHT22;30894;51.740;19.498;2022-08-19T09:42:45;43.00;53.70
45137;DHT22;30894;51.740;19.498;2022-08-19T09:45:18;42.90;53.70
45137;DHT22;30894;51.740;19.498;2022-08-19T09:47:47;43.00;53.50
45137;DHT22;30894;51.740;19.498;2022-08-19T09:50:14;43.20;53.40
45137;DHT22;30894;51.740;19.498;2022-08-19T09:52:40;43.30;53.30
45137;DHT22;30894;51.740;19.498;2022-08-19T09:55:09;43.50;53.00
45137;DHT22;30894;51.740;19.498;2022-08-19T09:57:36;43.60;52.90
45137;DHT22;30894;51.740;19.498;2022-08-19T10:00:05;43.80;52.80
45137;DHT22;30894;51.740;19.498;2022-08-19T10:02:33;43.90;52.50
45137;DHT22;30894;51.740;19.498;2022-08-19T10:05:01;43.70;52.50
45137;DHT22;30894;51.740;19.498;2022-08-19T10:07:46;43.70;52.80
45137;DHT22;30894;51.740;19.498;2022-08-19T10:10:12;43.70;52.70
45137;DHT22;30894;51.740;19.498;2022-08-19T10:12:38;43.60;53.50
45137;DHT22;30894;51.740;19.498;2022-08-19T10:15:05;43.40;52.90
45137;DHT22;30894;51.740;19.498;2022-08-19T10:17:32;43.40;53.00
45137;DHT22;30894;51.740;19.498;2022-08-19T10:20:01;43.70;52.90
45137;DHT22;30894;51.740;19.498;2022-08-19T10:22:30;43.90;52.50
45137;DHT22;30894;51.740;19.498;2022-08-19T10:24:56;43.80;52.40
45137;DHT22;30894;51.740;19.498;2022-08-19T10:27:23;43.50;52.60
45137;DHT22;30894;51.740;19.498;2022-08-19T10:29:52;43.50;52.70
45137;DHT22;30894;51.740;19.498;2022-08-19T10:32:18;43.70;52.50
45137;DHT22;30894;51.740;19.498;2022-08-19T10:34:45;43.70;52.30
45137;DHT22;30894;51.740;19.498;2022-08-19T10:37:12;44.00;52.10
45137;DHT22;30894;51.740;19.498;2022-08-19T10:39:39;44.10;51.70
45137;DHT22;30894;51.740;19.498;2022-08-19T10:42:08;44.20;51.60
45137;DHT22;30894;51.740;19.498;2022-08-19T10:44:36;44.10;51.50
45137;DHT22;30894;51.740;19.498;2022-08-19T10:47:03;44.20;51.30
45137;DHT22;30894;51.740;19.498;2022-08-19T10:49:30;44.60;51.10
45137;DHT22;30894;51.740;19.498;2022-08-19T10:51:56;45.10;50.70
45137;DHT22;30894;51.740;19.498;2022-08-19T10:54:41;45.40;50.20
45137;DHT22;30894;51.740;19.498;2022-08-19T10:57:30;45.50;49.80
45137;DHT22;30894;51.740;19.498;2022-08-19T10:59:57;45.70;49.70
45137;DHT22;30894;51.740;19.498;2022-08-19T11:02:24;45.80;49.50
45137;DHT22;30894;51.740;19.498;2022-08-19T11:04:52;45.70;49.50
45137;DHT22;30894;51.740;19.498;2022-08-19T11:07:19;45.90;49.40
45137;DHT22;30894;51.740;19.498;2022-08-19T11:09:46;46.00;49.30
45137;DHT22;30894;51.740;19.498;2022-08-19T11:12:13;46.10;49.20
45137;DHT22;30894;51.740;19.498;2022-08-19T11:14:41;46.20;48.90
45137;DHT22;30894;51.740;19.498;2022-08-19T11:17:08;46.20;49.00
45137;DHT22;30894;51.740;19.498;2022-08-19T11:19:37;45.90;49.00
45137;DHT22;30894;51.740;19.498;2022-08-19T11:22:03;45.70;49.10
45137;DHT22;30894;51.740;19.498;2022-08-19T11:24:29;45.70;49.20
45137;DHT22;30894;51.740;19.498;2022-08-19T11:27:01;45.70;49.00
45137;DHT22;30894;51.740;19.498;2022-08-19T11:29:31;45.70;48.80
45137;DHT22;30894;51.740;19.498;2022-08-19T11:31:58;45.70;48.80
45137;DHT22;30894;51.740;19.498;2022-08-19T11:34:26;45.70;48.70
45137;DHT22;30894;51.740;19.498;2022-08-19T11:36:55;45.90;48.40
45137;DHT22;30894;51.740;19.498;2022-08-19T11:39:28;45.70;48.20
45137;DHT22;30894;51.740;19.498;2022-08-19T11:42:02;45.80;48.30
45137;DHT22;30894;51.740;19.498;2022-08-19T11:44:50;45.80;48.10
45137;DHT22;30894;51.740;19.498;2022-08-19T11:47:18;45.40;48.20
45137;DHT22;30894;51.740;19.498;2022-08-19T11:49:46;45.40;48.30
45137;DHT22;30894;51.740;19.498;2022-08-19T11:52:12;45.50;48.10
45137;DHT22;30894;51.740;19.498;2022-08-19T11:54:38;45.40;47.80
45137;DHT22;30894;51.740;19.498;2022-08-19T11:57:05;45.30;47.90
45137;DHT22;30894;51.740;19.498;2022-08-19T11:59:34;45.40;47.90
45137;DHT22;30894;51.740;19.498;2022-08-19T12:02:00;45.80;47.60
45137;DHT22;30894;51.740;19.498;2022-08-19T12:04:26;45.90;47.20
45137;DHT22;30894;51.740;19.498;2022-08-19T12:06:52;46.00;47.10
45137;DHT22;30894;51.740;19.498;2022-08-19T12:09:20;46.10;47.00
45137;DHT22;30894;51.740;19.498;2022-08-19T12:11:47;46.30;46.80
45137;DHT22;30894;51.740;19.498;2022-08-19T12:14:17;46.50;46.70
45137;DHT22;30894;51.740;19.498;2022-08-19T12:16:45;46.40;46.40
45137;DHT22;30894;51.740;19.498;2022-08-19T12:19:12;46.30;46.30
45137;DHT22;30894;51.740;19.498;2022-08-19T12:21:40;46.10;46.30
45137;DHT22;30894;51.740;19.498;2022-08-19T12:24:06;46.20;46.30
45137;DHT22;30894;51.740;19.498;2022-08-19T12:26:33;46.10;46.30
45137;DHT22;30894;51.740;19.498;2022-08-19T12:29:00;46.10;46.20
45137;DHT22;30894;51.740;19.498;2022-08-19T12:31:29;46.30;46.20
45137;DHT22;30894;51.740;19.498;2022-08-19T12:33:56;45.80;46.00
45137;DHT22;30894;51.740;19.498;2022-08-19T12:36:22;45.10;46.50
45137;DHT22;30894;51.740;19.498;2022-08-19T12:38:48;44.50;46.90
45137;DHT22;30894;51.740;19.498;2022-08-19T12:41:16;44.00;47.40
45137;DHT22;30894;51.740;19.498;2022-08-19T12:43:44;43.70;47.70
45137;DHT22;30894;51.740;19.498;2022-08-19T12:46:11;43.70;47.80
45137;DHT22;30894;51.740;19.498;2022-08-19T12:48:38;43.50;47.80
45137;DHT22;30894;51.740;19.498;2022-08-19T12:51:10;43.60;47.90
45137;DHT22;30894;51.740;19.498;2022-08-19T12:53:41;44.00;47.50
45137;DHT22;30894;51.740;19.498;2022-08-19T12:56:10;44.70;46.80
45137;DHT22;30894;51.740;19.498;2022-08-19T12:58:37;44.90;46.40
45137;DHT22;30894;51.740;19.498;2022-08-19T13:01:11;44.90;46.30
45137;DHT22;30894;51.740;19.498;2022-08-19T13:03:39;45.10;46.20
45137;DHT22;30894;51.740;19.498;2022-08-19T13:06:05;45.20;46.10
45137;DHT22;30894;51.740;19.498;2022-08-19T13:08:32;45.50;46.00
45137;DHT22;30894;51.740;19.498;2022-08-19T13:11:07;45.70;45.70
45137;DHT22;30894;51.740;19.498;2022-08-19T13:13:40;45.70;45.50
45137;DHT22;30894;51.740;19.498;2022-08-19T13:16:11;45.70;45.30
45137;DHT22;30894;51.740;19.498;2022-08-19T13:18:39;45.70;45.30
45137;DHT22;30894;51.740;19.498;2022-08-19T13:21:08;45.60;45.20
45137;DHT22;30894;51.740;19.498;2022-08-19T13:23:37;45.20;45.40
45137;DHT22;30894;51.740;19.498;2022-08-19T13:26:06;44.40;45.80
45137;DHT22;30894;51.740;19.498;2022-08-19T13:28:33;43.50;46.40
45137;DHT22;30894;51.740;19.498;2022-08-19T13:31:23;43.20;46.80
45137;DHT22;30894;51.740;19.498;2022-08-19T13:34:09;42.30;47.30
45137;DHT22;30894;51.740;19.498;2022-08-19T13:36:35;41.60;48.10
45137;DHT22;30894;51.740;19.498;2022-08-19T13:39:03;41.10;48.40
45137;DHT22;30894;51.740;19.498;2022-08-19T13:41:30;40.80;48.60
45137;DHT22;30894;51.740;19.498;2022-08-19T13:43:57;40.50;48.70
45137;DHT22;30894;51.740;19.498;2022-08-19T13:46:23;40.20;48.90
45137;DHT22;30894;51.740;19.498;2022-08-19T13:48:49;40.10;49.00
45137;DHT22;30894;51.740;19.498;2022-08-19T13:51:17;40.00;49.10
45137;DHT22;30894;51.740;19.498;2022-08-19T13:53:44;39.90;49.20
45137;DHT22;30894;51.740;19.498;2022-08-19T13:56:14;39.90;49.20
45137;DHT22;30894;51.740;19.498;2022-08-19T13:58:42;40.00;49.10
45137;DHT22;30894;51.740;19.498;2022-08-19T14:01:09;40.00;49.10
45137;DHT22;30894;51.740;19.498;2022-08-19T14:03:37;40.00;49.10
45137;DHT22;30894;51.740;19.498;2022-08-19T14:06:03;40.10;48.90
45137;DHT22;30894;51.740;19.498;2022-08-19T14:08:30;39.90;48.80
45137;DHT22;30894;51.740;19.498;2022-08-19T14:10:58;39.80;49.00
45137;DHT22;30894;51.740;19.498;2022-08-19T14:13:25;40.40;48.70
45137;DHT22;30894;51.740;19.498;2022-08-19T14:15:51;41.00;48.10
45137;DHT22;30894;51.740;19.498;2022-08-19T14:18:18;41.30;47.70
45137;DHT22;30894;51.740;19.498;2022-08-19T14:20:45;41.60;47.30
45137;DHT22;30894;51.740;19.498;2022-08-19T14:23:11;41.50;47.20
45137;DHT22;30894;51.740;19.498;2022-08-19T14:25:38;41.30;47.40
45137;DHT22;30894;51.740;19.498;2022-08-19T14:28:04;40.90;47.60
45137;DHT22;30894;51.740;19.498;2022-08-19T14:30:33;40.50;48.10
45137;DHT22;30894;51.740;19.498;2022-08-19T14:33:01;40.00;48.50
45137;DHT22;30894;51.740;19.498;2022-08-19T14:35:29;39.90;48.80
45137;DHT22;30894;51.740;19.498;2022-08-19T14:37:59;39.50;49.00
45137;DHT22;30894;51.740;19.498;2022-08-19T14:40:27;39.30;49.30
45137;DHT22;30894;51.740;19.498;2022-08-19T14:43:00;39.60;49.20
45137;DHT22;30894;51.740;19.498;2022-08-19T14:45:34;40.00;48.60
45137;DHT22;30894;51.740;19.498;2022-08-19T14:48:04;40.20;48.30
45137;DHT22;30894;51.740;19.498;2022-08-19T14:50:31;40.40;48.10
45137;DHT22;30894;51.740;19.498;2022-08-19T14:53:03;40.70;47.80
45137;DHT22;30894;51.740;19.498;2022-08-19T14:55:31;41.10;47.50
45137;DHT22;30894;51.740;19.498;2022-08-19T14:57:58;41.20;47.30
45137;DHT22;30894;51.740;19.498;2022-08-19T15:00:24;41.10;47.40
45137;DHT22;30894;51.740;19.498;2022-08-19T15:02:51;41.00;47.70
45137;DHT22;30894;51.740;19.498;2022-08-19T15:05:19;41.00;47.60
45137;DHT22;30894;51.740;19.498;2022-08-19T15:07:45;40.80;47.60
45137;DHT22;30894;51.740;19.498;2022-08-19T15:10:12;40.80;47.70
45137;DHT22;30894;51.740;19.498;2022-08-19T15:12:39;40.90;47.60
45137;DHT22;30894;51.740;19.498;2022-08-19T15:15:07;40.90;47.70
45137;DHT22;30894;51.740;19.498;2022-08-19T15:17:44;40.70;47.70
45137;DHT22;30894;51.740;19.498;2022-08-19T15:20:17;40.50;48.10
45137;DHT22;30894;51.740;19.498;2022-08-19T15:22:44;40.30;48.30
45137;DHT22;30894;51.740;19.498;2022-08-19T15:25:13;39.80;48.60
45137;DHT22;30894;51.740;19.498;2022-08-19T15:27:41;39.30;49.00
45137;DHT22;30894;51.740;19.498;2022-08-19T15:30:10;38.90;49.50
45137;DHT22;30894;51.740;19.498;2022-08-19T15:32:38;38.50;49.80
45137;DHT22;30894;51.740;19.498;2022-08-19T15:35:06;38.50;50.00
45137;DHT22;30894;51.740;19.498;2022-08-19T15:37:32;38.60;49.90
45137;DHT22;30894;51.740;19.498;2022-08-19T15:39:58;38.80;49.70